sensor_id;sensor_type;location;lat;lon;timestamp;P1;durP1;ratioP1;P2;durP2;ratioP2
37087;SDS011;23002;52.676;6.432;2023-06-01T00:02:05;12.25;;;3.50;;
37087;SDS011;23002;52.676;6.432;2023-06-01T00:04:32;7.13;;;2.72;;
37087;SDS011;23002;52.676;6.432;2023-06-01T00:07:01;7.05;;;2.45;;
37087;SDS011;23002;52.676;6.432;2023-06-01T00:09:28;8.50;;;2.72;;
37087;SDS011;23002;52.676;6.432;2023-06-01T00:11:56;8.57;;;3.38;;
37087;SDS011;23002;52.676;6.432;2023-06-01T00:14:23;9.60;;;2.63;;
37087;SDS011;23002;52.676;6.432;2023-06-01T00:16:50;5.78;;;2.38;;
37087;SDS011;23002;52.676;6.432;2023-06-01T00:19:18;6.70;;;2.90;;
37087;SDS011;23002;52.676;6.432;2023-06-01T00:21:47;7.15;;;2.70;;
37087;SDS011;23002;52.676;6.432;2023-06-01T00:24:14;11.75;;;2.70;;
37087;SDS011;23002;52.676;6.432;2023-06-01T00:26:41;7.35;;;3.08;;
37087;SDS011;23002;52.676;6.432;2023-06-01T00:29:08;11.55;;;3.22;;
37087;SDS011;23002;52.676;6.432;2023-06-01T00:31:36;9.70;;;2.70;;
37087;SDS011;23002;52.676;6.432;2023-06-01T00:34:03;11.02;;;3.15;;
37087;SDS011;23002;52.676;6.432;2023-06-01T00:36:30;6.25;;;2.50;;
37087;SDS011;23002;52.676;6.432;2023-06-01T00:38:58;12.10;;;3.35;;
37087;SDS011;23002;52.676;6.432;2023-06-01T00:41:29;9.05;;;3.08;;
37087;SDS011;23002;52.676;6.432;2023-06-01T00:43:56;14.20;;;2.90;;
37087;SDS011;23002;52.676;6.432;2023-06-01T00:46:23;8.20;;;3.00;;
37087;SDS011;23002;52.676;6.432;2023-06-01T00:48:51;9.35;;;2.72;;
37087;SDS011;23002;52.676;6.432;2023-06-01T00:51:18;10.10;;;3.30;;
37087;SDS011;23002;52.676;6.432;2023-06-01T00:53:45;9.30;;;2.72;;
37087;SDS011;23002;52.676;6.432;2023-06-01T00:56:12;7.78;;;3.70;;
37087;SDS011;23002;52.676;6.432;2023-06-01T00:58:40;8.60;;;2.83;;
37087;SDS011;23002;52.676;6.432;2023-06-01T01:01:07;11.30;;;3.00;;
37087;SDS011;23002;52.676;6.432;2023-06-01T01:03:46;7.97;;;3.00;;
37087;SDS011;23002;52.676;6.432;2023-06-01T01:06:36;10.60;;;3.28;;
37087;SDS011;23002;52.676;6.432;2023-06-01T01:11:28;7.82;;;3.15;;
37087;SDS011;23002;52.676;6.432;2023-06-01T01:16:35;8.90;;;2.55;;
37087;SDS011;23002;52.676;6.432;2023-06-01T01:21:57;9.07;;;2.97;;
37087;SDS011;23002;52.676;6.432;2023-06-01T01:27:20;7.68;;;3.13;;
37087;SDS011;23002;52.676;6.432;2023-06-01T01:29:53;8.07;;;2.78;;
37087;SDS011;23002;52.676;6.432;2023-06-01T01:32:22;6.38;;;2.88;;
37087;SDS011;23002;52.676;6.432;2023-06-01T01:34:50;12.27;;;3.97;;
37087;SDS011;23002;52.676;6.432;2023-06-01T01:37:18;8.10;;;2.75;;
37087;SDS011;23002;52.676;6.432;2023-06-01T01:39:46;8.70;;;2.80;;
37087;SDS011;23002;52.676;6.432;2023-06-01T01:42:13;9.13;;;3.05;;
37087;SDS011;23002;52.676;6.432;2023-06-01T01:44:41;12.25;;;3.17;;
37087;SDS011;23002;52.676;6.432;2023-06-01T01:47:11;6.28;;;2.58;;
37087;SDS011;23002;52.676;6.432;2023-06-01T01:49:43;7.88;;;3.25;;
37087;SDS011;23002;52.676;6.432;2023-06-01T01:52:21;9.73;;;3.28;;
37087;SDS011;23002;52.676;6.432;2023-06-01T01:54:49;8.38;;;3.10;;
37087;SDS011;23002;52.676;6.432;2023-06-01T01:57:17;7.30;;;2.53;;
37087;SDS011;23002;52.676;6.432;2023-06-01T01:59:47;6.00;;;2.70;;
37087;SDS011;23002;52.676;6.432;2023-06-01T02:02:15;8.57;;;3.10;;
37087;SDS011;23002;52.676;6.432;2023-06-01T02:04:43;8.48;;;3.20;;
37087;SDS011;23002;52.676;6.432;2023-06-01T02:07:12;8.13;;;3.20;;
37087;SDS011;23002;52.676;6.432;2023-06-01T02:09:39;8.32;;;3.00;;
37087;SDS011;23002;52.676;6.432;2023-06-01T02:12:07;7.90;;;2.80;;
37087;SDS011;23002;52.676;6.432;2023-06-01T02:14:34;10.88;;;3.25;;
37087;SDS011;23002;52.676;6.432;2023-06-01T02:17:01;7.68;;;2.40;;
37087;SDS011;23002;52.676;6.432;2023-06-01T02:19:29;10.13;;;2.97;;
37087;SDS011;23002;52.676;6.432;2023-06-01T02:21:56;8.68;;;2.75;;
37087;SDS011;23002;52.676;6.432;2023-06-01T02:24:23;7.80;;;3.13;;
37087;SDS011;23002;52.676;6.432;2023-06-01T02:26:51;6.65;;;2.85;;
37087;SDS011;23002;52.676;6.432;2023-06-01T02:29:20;6.82;;;2.55;;
37087;SDS011;23002;52.676;6.432;2023-06-01T02:31:51;5.85;;;2.60;;
37087;SDS011;23002;52.676;6.432;2023-06-01T02:34:19;8.40;;;3.53;;
37087;SDS011;23002;52.676;6.432;2023-06-01T02:36:46;7.22;;;3.13;;
37087;SDS011;23002;52.676;6.432;2023-06-01T02:39:15;7.30;;;3.20;;
37087;SDS011;23002;52.676;6.432;2023-06-01T02:41:43;6.25;;;2.83;;
37087;SDS011;23002;52.676;6.432;2023-06-01T02:44:10;8.68;;;3.20;;
37087;SDS011;23002;52.676;6.432;2023-06-01T02:46:37;9.85;;;3.42;;
37087;SDS011;23002;52.676;6.432;2023-06-01T02:49:04;8.93;;;3.20;;
37087;SDS011;23002;52.676;6.432;2023-06-01T02:51:32;5.70;;;2.35;;
37087;SDS011;23002;52.676;6.432;2023-06-01T02:54:00;5.15;;;2.60;;
37087;SDS011;23002;52.676;6.432;2023-06-01T02:56:27;9.02;;;3.60;;
37087;SDS011;23002;52.676;6.432;2023-06-01T02:58:54;6.03;;;2.75;;
37087;SDS011;23002;52.676;6.432;2023-06-01T03:01:22;10.18;;;3.03;;
37087;SDS011;23002;52.676;6.432;2023-06-01T03:03:49;7.15;;;2.58;;
37087;SDS011;23002;52.676;6.432;2023-06-01T03:06:19;9.82;;;3.00;;
37087;SDS011;23002;52.676;6.432;2023-06-01T03:08:50;6.75;;;2.70;;
37087;SDS011;23002;52.676;6.432;2023-06-01T03:11:17;5.57;;;2.80;;
37087;SDS011;23002;52.676;6.432;2023-06-01T03:13:44;6.93;;;2.92;;
37087;SDS011;23002;52.676;6.432;2023-06-01T03:16:11;8.07;;;3.30;;
37087;SDS011;23002;52.676;6.432;2023-06-01T03:18:38;6.93;;;2.42;;
37087;SDS011;23002;52.676;6.432;2023-06-01T03:21:06;9.90;;;2.58;;
37087;SDS011;23002;52.676;6.432;2023-06-01T03:23:33;4.95;;;2.25;;
37087;SDS011;23002;52.676;6.432;2023-06-01T03:26:00;9.27;;;2.80;;
37087;SDS011;23002;52.676;6.432;2023-06-01T03:28:30;5.32;;;2.17;;
37087;SDS011;23002;52.676;6.432;2023-06-01T03:30:57;5.82;;;2.33;;
37087;SDS011;23002;52.676;6.432;2023-06-01T03:33:25;6.55;;;2.15;;
37087;SDS011;23002;52.676;6.432;2023-06-01T03:35:52;9.60;;;3.30;;
37087;SDS011;23002;52.676;6.432;2023-06-01T03:38:19;7.65;;;2.80;;
37087;SDS011;23002;52.676;6.432;2023-06-01T03:40:46;8.98;;;3.20;;
37087;SDS011;23002;52.676;6.432;2023-06-01T03:43:13;10.43;;;2.95;;
37087;SDS011;23002;52.676;6.432;2023-06-01T03:45:41;7.07;;;2.97;;
37087;SDS011;23002;52.676;6.432;2023-06-01T03:48:08;6.18;;;2.38;;
37087;SDS011;23002;52.676;6.432;2023-06-01T03:50:35;8.50;;;3.22;;
37087;SDS011;23002;52.676;6.432;2023-06-01T03:53:03;7.70;;;3.35;;
37087;SDS011;23002;52.676;6.432;2023-06-01T03:55:30;8.48;;;2.85;;
37087;SDS011;23002;52.676;6.432;2023-06-01T03:57:58;7.70;;;2.42;;
37087;SDS011;23002;52.676;6.432;2023-06-01T04:00:26;8.07;;;2.85;;
37087;SDS011;23002;52.676;6.432;2023-06-01T04:02:57;7.22;;;3.05;;
37087;SDS011;23002;52.676;6.432;2023-06-01T04:05:25;7.30;;;2.50;;
37087;SDS011;23002;52.676;6.432;2023-06-01T04:07:53;9.98;;;3.22;;
37087;SDS011;23002;52.676;6.432;2023-06-01T04:10:21;6.88;;;2.58;;
37087;SDS011;23002;52.676;6.432;2023-06-01T04:12:49;6.93;;;2.72;;
37087;SDS011;23002;52.676;6.432;2023-06-01T04:15:17;9.90;;;2.60;;
37087;SDS011;23002;52.676;6.432;2023-06-01T04:17:45;15.55;;;2.90;;
37087;SDS011;23002;52.676;6.432;2023-06-01T04:20:14;6.00;;;2.22;;
37087;SDS011;23002;52.676;6.432;2023-06-01T04:22:42;4.15;;;2.20;;
37087;SDS011;23002;52.676;6.432;2023-06-01T04:25:10;8.73;;;3.00;;
37087;SDS011;23002;52.676;6.432;2023-06-01T04:27:42;7.00;;;2.72;;
37087;SDS011;23002;52.676;6.432;2023-06-01T04:30:11;8.32;;;2.95;;
37087;SDS011;23002;52.676;6.432;2023-06-01T04:32:39;9.48;;;2.75;;
37087;SDS011;23002;52.676;6.432;2023-06-01T04:35:08;7.00;;;2.58;;
37087;SDS011;23002;52.676;6.432;2023-06-01T04:37:38;5.10;;;2.42;;
37087;SDS011;23002;52.676;6.432;2023-06-01T04:40:07;6.77;;;2.63;;
37087;SDS011;23002;52.676;6.432;2023-06-01T04:42:36;8.73;;;2.38;;
37087;SDS011;23002;52.676;6.432;2023-06-01T04:45:05;7.50;;;1.95;;
37087;SDS011;23002;52.676;6.432;2023-06-01T04:47:35;6.80;;;2.30;;
37087;SDS011;23002;52.676;6.432;2023-06-01T04:50:06;9.68;;;2.58;;
37087;SDS011;23002;52.676;6.432;2023-06-01T04:52:37;4.90;;;1.75;;
37087;SDS011;23002;52.676;6.432;2023-06-01T04:55:05;5.97;;;2.13;;
37087;SDS011;23002;52.676;6.432;2023-06-01T04:57:33;6.88;;;2.25;;
37087;SDS011;23002;52.676;6.432;2023-06-01T05:00:05;6.70;;;2.05;;
37087;SDS011;23002;52.676;6.432;2023-06-01T05:02:39;5.57;;;1.60;;
37087;SDS011;23002;52.676;6.432;2023-06-01T05:05:07;4.88;;;1.55;;
37087;SDS011;23002;52.676;6.432;2023-06-01T05:07:37;4.22;;;2.08;;
37087;SDS011;23002;52.676;6.432;2023-06-01T05:10:05;4.45;;;2.00;;
37087;SDS011;23002;52.676;6.432;2023-06-01T05:12:33;6.38;;;1.88;;
37087;SDS011;23002;52.676;6.432;2023-06-01T05:15:04;7.40;;;2.28;;
37087;SDS011;23002;52.676;6.432;2023-06-01T05:17:32;7.20;;;3.00;;
37087;SDS011;23002;52.676;6.432;2023-06-01T05:19:59;5.57;;;2.00;;
37087;SDS011;23002;52.676;6.432;2023-06-01T05:22:26;7.30;;;2.40;;
37087;SDS011;23002;52.676;6.432;2023-06-01T05:24:53;4.15;;;1.60;;
37087;SDS011;23002;52.676;6.432;2023-06-01T05:27:21;5.40;;;1.92;;
37087;SDS011;23002;52.676;6.432;2023-06-01T05:29:48;4.95;;;2.10;;
37087;SDS011;23002;52.676;6.432;2023-06-01T05:32:16;5.07;;;2.25;;
37087;SDS011;23002;52.676;6.432;2023-06-01T05:34:43;3.35;;;1.52;;
37087;SDS011;23002;52.676;6.432;2023-06-01T05:37:10;5.78;;;2.25;;
37087;SDS011;23002;52.676;6.432;2023-06-01T05:39:37;5.70;;;1.83;;
37087;SDS011;23002;52.676;6.432;2023-06-01T05:42:05;8.90;;;2.67;;
37087;SDS011;23002;52.676;6.432;2023-06-01T05:44:33;5.15;;;1.75;;
37087;SDS011;23002;52.676;6.432;2023-06-01T05:47:00;4.68;;;1.80;;
37087;SDS011;23002;52.676;6.432;2023-06-01T05:49:27;6.60;;;2.20;;
37087;SDS011;23002;52.676;6.432;2023-06-01T05:51:58;6.00;;;1.90;;
37087;SDS011;23002;52.676;6.432;2023-06-01T05:54:25;4.90;;;2.20;;
37087;SDS011;23002;52.676;6.432;2023-06-01T05:56:52;9.00;;;2.00;;
37087;SDS011;23002;52.676;6.432;2023-06-01T05:59:19;6.38;;;1.70;;
37087;SDS011;23002;52.676;6.432;2023-06-01T06:01:47;11.15;;;2.42;;
37087;SDS011;23002;52.676;6.432;2023-06-01T06:04:16;11.85;;;2.65;;
37087;SDS011;23002;52.676;6.432;2023-06-01T06:06:43;8.75;;;2.28;;
37087;SDS011;23002;52.676;6.432;2023-06-01T06:09:11;6.30;;;2.75;;
37087;SDS011;23002;52.676;6.432;2023-06-01T06:11:39;4.07;;;1.63;;
37087;SDS011;23002;52.676;6.432;2023-06-01T06:14:07;7.20;;;2.67;;
37087;SDS011;23002;52.676;6.432;2023-06-01T06:16:35;4.20;;;2.10;;
37087;SDS011;23002;52.676;6.432;2023-06-01T06:19:02;7.28;;;2.28;;
37087;SDS011;23002;52.676;6.432;2023-06-01T06:21:29;6.20;;;2.13;;
37087;SDS011;23002;52.676;6.432;2023-06-01T06:23:57;5.47;;;2.13;;
37087;SDS011;23002;52.676;6.432;2023-06-01T06:26:25;7.13;;;1.90;;
37087;SDS011;23002;52.676;6.432;2023-06-01T06:28:53;5.82;;;2.00;;
37087;SDS011;23002;52.676;6.432;2023-06-01T06:31:21;5.18;;;1.70;;
37087;SDS011;23002;52.676;6.432;2023-06-01T06:33:48;6.43;;;1.95;;
37087;SDS011;23002;52.676;6.432;2023-06-01T06:36:16;6.70;;;2.00;;
37087;SDS011;23002;52.676;6.432;2023-06-01T06:38:43;7.43;;;2.42;;
37087;SDS011;23002;52.676;6.432;2023-06-01T06:41:10;6.75;;;2.35;;
37087;SDS011;23002;52.676;6.432;2023-06-01T06:43:37;5.70;;;2.00;;
37087;SDS011;23002;52.676;6.432;2023-06-01T06:46:05;5.72;;;2.58;;
37087;SDS011;23002;52.676;6.432;2023-06-01T06:48:32;5.95;;;1.70;;
37087;SDS011;23002;52.676;6.432;2023-06-01T06:50:59;3.25;;;1.88;;
37087;SDS011;23002;52.676;6.432;2023-06-01T06:53:27;7.32;;;2.67;;
37087;SDS011;23002;52.676;6.432;2023-06-01T06:55:54;4.35;;;1.90;;
37087;SDS011;23002;52.676;6.432;2023-06-01T06:58:22;5.25;;;2.03;;
37087;SDS011;23002;52.676;6.432;2023-06-01T07:00:49;8.18;;;2.65;;
37087;SDS011;23002;52.676;6.432;2023-06-01T07:03:16;13.10;;;2.78;;
37087;SDS011;23002;52.676;6.432;2023-06-01T07:05:44;4.93;;;2.08;;
37087;SDS011;23002;52.676;6.432;2023-06-01T07:08:11;4.05;;;2.10;;
37087;SDS011;23002;52.676;6.432;2023-06-01T07:10:38;6.88;;;1.92;;
37087;SDS011;23002;52.676;6.432;2023-06-01T07:13:05;4.78;;;2.15;;
37087;SDS011;23002;52.676;6.432;2023-06-01T07:15:33;6.32;;;2.72;;
37087;SDS011;23002;52.676;6.432;2023-06-01T07:18:00;4.32;;;2.50;;
37087;SDS011;23002;52.676;6.432;2023-06-01T07:20:27;3.00;;;1.58;;
37087;SDS011;23002;52.676;6.432;2023-06-01T07:22:54;4.28;;;2.20;;
37087;SDS011;23002;52.676;6.432;2023-06-01T07:25:21;6.55;;;2.22;;
37087;SDS011;23002;52.676;6.432;2023-06-01T07:27:49;10.82;;;2.05;;
37087;SDS011;23002;52.676;6.432;2023-06-01T07:30:16;7.70;;;2.03;;
37087;SDS011;23002;52.676;6.432;2023-06-01T07:32:44;6.93;;;1.75;;
37087;SDS011;23002;52.676;6.432;2023-06-01T07:35:11;5.32;;;2.15;;
37087;SDS011;23002;52.676;6.432;2023-06-01T07:37:39;4.40;;;1.65;;
37087;SDS011;23002;52.676;6.432;2023-06-01T07:40:07;5.53;;;1.95;;
37087;SDS011;23002;52.676;6.432;2023-06-01T07:42:34;5.93;;;1.75;;
37087;SDS011;23002;52.676;6.432;2023-06-01T07:45:01;8.98;;;2.03;;
37087;SDS011;23002;52.676;6.432;2023-06-01T07:47:28;4.60;;;1.30;;
37087;SDS011;23002;52.676;6.432;2023-06-01T07:49:56;4.65;;;1.92;;
37087;SDS011;23002;52.676;6.432;2023-06-01T07:52:23;4.60;;;2.45;;
37087;SDS011;23002;52.676;6.432;2023-06-01T07:54:51;5.40;;;1.77;;
37087;SDS011;23002;52.676;6.432;2023-06-01T07:57:18;5.72;;;1.67;;
37087;SDS011;23002;52.676;6.432;2023-06-01T07:59:45;3.60;;;1.58;;
37087;SDS011;23002;52.676;6.432;2023-06-01T08:02:12;2.65;;;1.55;;
37087;SDS011;23002;52.676;6.432;2023-06-01T08:04:40;4.70;;;1.85;;
37087;SDS011;23002;52.676;6.432;2023-06-01T08:07:08;6.97;;;1.60;;
37087;SDS011;23002;52.676;6.432;2023-06-01T08:09:35;3.13;;;1.75;;
37087;SDS011;23002;52.676;6.432;2023-06-01T08:12:06;8.73;;;1.83;;
37087;SDS011;23002;52.676;6.432;2023-06-01T08:14:33;3.65;;;1.70;;
37087;SDS011;23002;52.676;6.432;2023-06-01T08:17:01;5.72;;;1.55;;
37087;SDS011;23002;52.676;6.432;2023-06-01T08:19:28;8.18;;;1.60;;
37087;SDS011;23002;52.676;6.432;2023-06-01T08:21:56;7.65;;;2.03;;
37087;SDS011;23002;52.676;6.432;2023-06-01T08:24:23;6.55;;;2.00;;
37087;SDS011;23002;52.676;6.432;2023-06-01T08:26:54;6.95;;;1.70;;
37087;SDS011;23002;52.676;6.432;2023-06-01T08:29:22;3.13;;;1.70;;
37087;SDS011;23002;52.676;6.432;2023-06-01T08:32:07;7.32;;;2.03;;
37087;SDS011;23002;52.676;6.432;2023-06-01T08:34:34;5.20;;;1.50;;
37087;SDS011;23002;52.676;6.432;2023-06-01T08:37:02;5.43;;;2.00;;
37087;SDS011;23002;52.676;6.432;2023-06-01T08:39:29;5.20;;;1.65;;
37087;SDS011;23002;52.676;6.432;2023-06-01T08:44:36;5.00;;;1.73;;
37087;SDS011;23002;52.676;6.432;2023-06-01T08:47:04;3.15;;;1.73;;
37087;SDS011;23002;52.676;6.432;2023-06-01T08:49:32;6.65;;;1.55;;
37087;SDS011;23002;52.676;6.432;2023-06-01T08:52:00;5.13;;;1.55;;
37087;SDS011;23002;52.676;6.432;2023-06-01T08:54:28;6.15;;;1.58;;
37087;SDS011;23002;52.676;6.432;2023-06-01T08:56:58;5.32;;;1.80;;
37087;SDS011;23002;52.676;6.432;2023-06-01T08:59:26;4.40;;;1.42;;
37087;SDS011;23002;52.676;6.432;2023-06-01T09:01:53;5.38;;;1.80;;
37087;SDS011;23002;52.676;6.432;2023-06-01T09:04:21;4.15;;;1.35;;
37087;SDS011;23002;52.676;6.432;2023-06-01T09:06:48;3.42;;;1.25;;
37087;SDS011;23002;52.676;6.432;2023-06-01T09:09:18;5.13;;;1.48;;
37087;SDS011;23002;52.676;6.432;2023-06-01T09:11:45;3.47;;;1.40;;
37087;SDS011;23002;52.676;6.432;2023-06-01T09:14:23;5.47;;;2.08;;
37087;SDS011;23002;52.676;6.432;2023-06-01T09:16:51;3.13;;;1.63;;
37087;SDS011;23002;52.676;6.432;2023-06-01T09:19:18;5.43;;;1.52;;
37087;SDS011;23002;52.676;6.432;2023-06-01T09:21:55;3.20;;;1.77;;
37087;SDS011;23002;52.676;6.432;2023-06-01T09:24:23;3.47;;;1.58;;
37087;SDS011;23002;52.676;6.432;2023-06-01T09:26:50;5.72;;;1.60;;
37087;SDS011;23002;52.676;6.432;2023-06-01T09:29:18;4.72;;;1.90;;
37087;SDS011;23002;52.676;6.432;2023-06-01T09:31:45;6.80;;;2.00;;
37087;SDS011;23002;52.676;6.432;2023-06-01T09:34:16;5.90;;;1.42;;
37087;SDS011;23002;52.676;6.432;2023-06-01T09:39:15;3.30;;;1.10;;
37087;SDS011;23002;52.676;6.432;2023-06-01T09:44:38;3.55;;;1.27;;
37087;SDS011;23002;52.676;6.432;2023-06-01T09:47:06;4.28;;;1.50;;
37087;SDS011;23002;52.676;6.432;2023-06-01T09:49:39;11.00;;;1.70;;
37087;SDS011;23002;52.676;6.432;2023-06-01T09:52:09;4.05;;;1.40;;
37087;SDS011;23002;52.676;6.432;2023-06-01T09:54:39;4.60;;;1.38;;
37087;SDS011;23002;52.676;6.432;2023-06-01T09:57:07;3.83;;;1.40;;
37087;SDS011;23002;52.676;6.432;2023-06-01T09:59:38;2.80;;;1.40;;
37087;SDS011;23002;52.676;6.432;2023-06-01T10:02:07;2.38;;;1.20;;
37087;SDS011;23002;52.676;6.432;2023-06-01T10:04:36;1.27;;;0.80;;
37087;SDS011;23002;52.676;6.432;2023-06-01T10:07:05;1.42;;;0.60;;
37087;SDS011;23002;52.676;6.432;2023-06-01T10:09:33;2.88;;;1.00;;
37087;SDS011;23002;52.676;6.432;2023-06-01T10:12:01;2.70;;;1.23;;
37087;SDS011;23002;52.676;6.432;2023-06-01T10:14:28;1.27;;;0.80;;
37087;SDS011;23002;52.676;6.432;2023-06-01T10:16:55;1.48;;;0.88;;
37087;SDS011;23002;52.676;6.432;2023-06-01T10:19:22;2.78;;;0.98;;
37087;SDS011;23002;52.676;6.432;2023-06-01T10:21:50;2.58;;;1.00;;
37087;SDS011;23002;52.676;6.432;2023-06-01T10:24:17;2.67;;;1.30;;
37087;SDS011;23002;52.676;6.432;2023-06-01T10:29:28;1.40;;;0.80;;
37087;SDS011;23002;52.676;6.432;2023-06-01T10:31:56;2.50;;;0.70;;
37087;SDS011;23002;52.676;6.432;2023-06-01T10:39:31;3.05;;;1.00;;
37087;SDS011;23002;52.676;6.432;2023-06-01T10:41:58;1.67;;;0.90;;
37087;SDS011;23002;52.676;6.432;2023-06-01T10:44:46;1.75;;;0.82;;
37087;SDS011;23002;52.676;6.432;2023-06-01T10:52:23;2.08;;;1.13;;
37087;SDS011;23002;52.676;6.432;2023-06-01T10:54:52;2.88;;;1.17;;
37087;SDS011;23002;52.676;6.432;2023-06-01T11:02:33;6.32;;;1.30;;
37087;SDS011;23002;52.676;6.432;2023-06-01T11:05:32;7.25;;;2.10;;
37087;SDS011;23002;52.676;6.432;2023-06-01T11:07:59;4.07;;;1.23;;
37087;SDS011;23002;52.676;6.432;2023-06-01T11:13:13;4.82;;;1.52;;
37087;SDS011;23002;52.676;6.432;2023-06-01T11:18:41;3.83;;;1.80;;
37087;SDS011;23002;52.676;6.432;2023-06-01T11:21:09;4.95;;;1.80;;
37087;SDS011;23002;52.676;6.432;2023-06-01T11:23:39;3.78;;;1.60;;
37087;SDS011;23002;52.676;6.432;2023-06-01T11:26:07;4.18;;;1.75;;
37087;SDS011;23002;52.676;6.432;2023-06-01T11:28:35;3.75;;;1.40;;
37087;SDS011;23002;52.676;6.432;2023-06-01T11:31:02;2.90;;;1.42;;
37087;SDS011;23002;52.676;6.432;2023-06-01T11:33:31;4.35;;;1.83;;
37087;SDS011;23002;52.676;6.432;2023-06-01T11:36:00;2.40;;;1.38;;
37087;SDS011;23002;52.676;6.432;2023-06-01T11:38:33;4.40;;;1.58;;
37087;SDS011;23002;52.676;6.432;2023-06-01T11:41:04;5.35;;;1.33;;
37087;SDS011;23002;52.676;6.432;2023-06-01T11:43:32;2.55;;;1.30;;
37087;SDS011;23002;52.676;6.432;2023-06-01T11:46:00;5.20;;;1.50;;
37087;SDS011;23002;52.676;6.432;2023-06-01T11:48:42;5.10;;;1.48;;
37087;SDS011;23002;52.676;6.432;2023-06-01T11:53:42;3.28;;;1.15;;
37087;SDS011;23002;52.676;6.432;2023-06-01T11:56:09;6.40;;;1.35;;
37087;SDS011;23002;52.676;6.432;2023-06-01T11:58:36;6.38;;;1.40;;
37087;SDS011;23002;52.676;6.432;2023-06-01T12:01:04;6.00;;;1.70;;
37087;SDS011;23002;52.676;6.432;2023-06-01T12:03:33;4.28;;;1.50;;
37087;SDS011;23002;52.676;6.432;2023-06-01T12:06:21;5.13;;;1.60;;
37087;SDS011;23002;52.676;6.432;2023-06-01T12:08:51;2.53;;;1.10;;
37087;SDS011;23002;52.676;6.432;2023-06-01T12:11:21;3.70;;;1.55;;
37087;SDS011;23002;52.676;6.432;2023-06-01T12:13:49;3.70;;;1.10;;
37087;SDS011;23002;52.676;6.432;2023-06-01T12:16:16;7.82;;;1.45;;
37087;SDS011;23002;52.676;6.432;2023-06-01T12:18:48;3.92;;;1.20;;
37087;SDS011;23002;52.676;6.432;2023-06-01T12:21:15;6.50;;;1.30;;
37087;SDS011;23002;52.676;6.432;2023-06-01T12:23:49;4.35;;;1.10;;
37087;SDS011;23002;52.676;6.432;2023-06-01T12:26:20;11.85;;;1.92;;
37087;SDS011;23002;52.676;6.432;2023-06-01T12:28:48;3.08;;;1.30;;
37087;SDS011;23002;52.676;6.432;2023-06-01T12:31:23;3.03;;;1.35;;
37087;SDS011;23002;52.676;6.432;2023-06-01T12:33:51;4.85;;;1.60;;
37087;SDS011;23002;52.676;6.432;2023-06-01T12:36:35;7.93;;;1.58;;
37087;SDS011;23002;52.676;6.432;2023-06-01T12:39:03;5.57;;;1.67;;
37087;SDS011;23002;52.676;6.432;2023-06-01T12:41:31;3.97;;;1.52;;
37087;SDS011;23002;52.676;6.432;2023-06-01T12:43:59;3.60;;;1.27;;
37087;SDS011;23002;52.676;6.432;2023-06-01T12:46:27;5.63;;;1.85;;
37087;SDS011;23002;52.676;6.432;2023-06-01T12:49:10;3.85;;;1.52;;
37087;SDS011;23002;52.676;6.432;2023-06-01T12:51:37;2.65;;;1.67;;
37087;SDS011;23002;52.676;6.432;2023-06-01T12:54:05;4.88;;;1.48;;
37087;SDS011;23002;52.676;6.432;2023-06-01T12:56:32;5.05;;;1.83;;
37087;SDS011;23002;52.676;6.432;2023-06-01T12:59:01;4.15;;;1.10;;
37087;SDS011;23002;52.676;6.432;2023-06-01T13:01:29;3.72;;;1.30;;
37087;SDS011;23002;52.676;6.432;2023-06-01T13:03:56;3.10;;;1.38;;
37087;SDS011;23002;52.676;6.432;2023-06-01T13:06:24;3.17;;;1.63;;
37087;SDS011;23002;52.676;6.432;2023-06-01T13:08:51;3.80;;;2.00;;
37087;SDS011;23002;52.676;6.432;2023-06-01T13:11:18;3.47;;;1.15;;
37087;SDS011;23002;52.676;6.432;2023-06-01T13:13:45;4.65;;;1.50;;
37087;SDS011;23002;52.676;6.432;2023-06-01T13:16:14;4.18;;;1.30;;
37087;SDS011;23002;52.676;6.432;2023-06-01T13:18:41;5.88;;;1.20;;
37087;SDS011;23002;52.676;6.432;2023-06-01T13:21:09;4.60;;;1.40;;
37087;SDS011;23002;52.676;6.432;2023-06-01T13:23:36;3.22;;;1.25;;
37087;SDS011;23002;52.676;6.432;2023-06-01T13:26:04;4.05;;;1.58;;
37087;SDS011;23002;52.676;6.432;2023-06-01T13:28:31;6.57;;;1.45;;
37087;SDS011;23002;52.676;6.432;2023-06-01T13:30:59;5.40;;;1.52;;
37087;SDS011;23002;52.676;6.432;2023-06-01T13:33:26;5.07;;;1.60;;
37087;SDS011;23002;52.676;6.432;2023-06-01T13:35:53;8.48;;;1.40;;
37087;SDS011;23002;52.676;6.432;2023-06-01T13:38:20;3.00;;;1.30;;
37087;SDS011;23002;52.676;6.432;2023-06-01T13:40:48;3.78;;;1.40;;
37087;SDS011;23002;52.676;6.432;2023-06-01T13:43:16;4.28;;;1.40;;
37087;SDS011;23002;52.676;6.432;2023-06-01T13:45:44;3.58;;;1.48;;
37087;SDS011;23002;52.676;6.432;2023-06-01T13:48:11;2.42;;;1.05;;
37087;SDS011;23002;52.676;6.432;2023-06-01T13:50:43;5.85;;;1.52;;
37087;SDS011;23002;52.676;6.432;2023-06-01T13:53:10;3.50;;;1.45;;
37087;SDS011;23002;52.676;6.432;2023-06-01T13:55:37;5.00;;;1.33;;
37087;SDS011;23002;52.676;6.432;2023-06-01T13:58:05;5.82;;;1.85;;
37087;SDS011;23002;52.676;6.432;2023-06-01T14:00:32;4.68;;;1.50;;
37087;SDS011;23002;52.676;6.432;2023-06-01T14:03:00;3.90;;;1.35;;
37087;SDS011;23002;52.676;6.432;2023-06-01T14:05:27;4.07;;;1.45;;
37087;SDS011;23002;52.676;6.432;2023-06-01T14:08:14;2.03;;;1.15;;
37087;SDS011;23002;52.676;6.432;2023-06-01T14:10:41;3.95;;;1.27;;
37087;SDS011;23002;52.676;6.432;2023-06-01T14:13:08;5.53;;;1.33;;
37087;SDS011;23002;52.676;6.432;2023-06-01T14:15:36;2.38;;;1.25;;
37087;SDS011;23002;52.676;6.432;2023-06-01T14:18:03;3.47;;;1.58;;
37087;SDS011;23002;52.676;6.432;2023-06-01T14:20:31;3.00;;;1.60;;
37087;SDS011;23002;52.676;6.432;2023-06-01T14:22:59;3.13;;;1.17;;
37087;SDS011;23002;52.676;6.432;2023-06-01T14:25:26;3.50;;;1.05;;
37087;SDS011;23002;52.676;6.432;2023-06-01T14:27:53;3.72;;;1.23;;
37087;SDS011;23002;52.676;6.432;2023-06-01T14:30:21;5.97;;;2.22;;
37087;SDS011;23002;52.676;6.432;2023-06-01T14:32:50;2.90;;;1.05;;
37087;SDS011;23002;52.676;6.432;2023-06-01T14:35:17;1.70;;;0.85;;
37087;SDS011;23002;52.676;6.432;2023-06-01T14:37:45;3.03;;;1.20;;
37087;SDS011;23002;52.676;6.432;2023-06-01T14:40:15;3.65;;;1.42;;
37087;SDS011;23002;52.676;6.432;2023-06-01T14:42:42;6.05;;;1.50;;
37087;SDS011;23002;52.676;6.432;2023-06-01T14:45:10;2.08;;;1.30;;
37087;SDS011;23002;52.676;6.432;2023-06-01T14:47:41;7.10;;;1.40;;
37087;SDS011;23002;52.676;6.432;2023-06-01T14:50:09;4.07;;;1.30;;
37087;SDS011;23002;52.676;6.432;2023-06-01T14:52:36;4.53;;;1.08;;
37087;SDS011;23002;52.676;6.432;2023-06-01T14:55:04;6.80;;;1.35;;
37087;SDS011;23002;52.676;6.432;2023-06-01T14:57:31;3.60;;;1.10;;
37087;SDS011;23002;52.676;6.432;2023-06-01T14:59:58;4.13;;;1.75;;
37087;SDS011;23002;52.676;6.432;2023-06-01T15:02:30;4.78;;;1.50;;
37087;SDS011;23002;52.676;6.432;2023-06-01T15:04:57;6.63;;;1.52;;
37087;SDS011;23002;52.676;6.432;2023-06-01T15:07:25;4.35;;;1.38;;
37087;SDS011;23002;52.676;6.432;2023-06-01T15:09:52;6.22;;;1.42;;
37087;SDS011;23002;52.676;6.432;2023-06-01T15:12:19;5.95;;;1.13;;
37087;SDS011;23002;52.676;6.432;2023-06-01T15:14:47;4.22;;;1.38;;
37087;SDS011;23002;52.676;6.432;2023-06-01T15:17:16;8.52;;;2.33;;
37087;SDS011;23002;52.676;6.432;2023-06-01T15:19:43;7.03;;;1.55;;
37087;SDS011;23002;52.676;6.432;2023-06-01T15:22:11;4.63;;;1.38;;
37087;SDS011;23002;52.676;6.432;2023-06-01T15:24:38;2.78;;;1.20;;
37087;SDS011;23002;52.676;6.432;2023-06-01T15:27:07;3.67;;;1.60;;
37087;SDS011;23002;52.676;6.432;2023-06-01T15:29:34;4.55;;;1.30;;
37087;SDS011;23002;52.676;6.432;2023-06-01T15:32:02;3.90;;;1.52;;
37087;SDS011;23002;52.676;6.432;2023-06-01T15:34:29;3.30;;;1.20;;
37087;SDS011;23002;52.676;6.432;2023-06-01T15:36:56;2.35;;;1.20;;
37087;SDS011;23002;52.676;6.432;2023-06-01T15:39:23;4.20;;;1.40;;
37087;SDS011;23002;52.676;6.432;2023-06-01T15:41:50;4.00;;;1.40;;